sensor_id;sensor_type;location;lat;lon;timestamp;pressure;altitude;pressure_sealevel;temperature;humidity
10706;BME280;5404;42.656;23.336;2023-04-09T00:01:37;95134.06;;;7.26;100.00
10706;BME280;5404;42.656;23.336;2023-04-09T00:04:02;95134.59;;;7.28;100.00
10706;BME280;5404;42.656;23.336;2023-04-09T00:06:27;95130.63;;;7.30;100.00
10706;BME280;5404;42.656;23.336;2023-04-09T00:08:53;95128.25;;;7.34;100.00
10706;BME280;5404;42.656;23.336;2023-04-09T00:11:18;95134.84;;;7.26;100.00
10706;BME280;5404;42.656;23.336;2023-04-09T00:13:43;95133.28;;;7.30;100.00
10706;BME280;5404;42.656;23.336;2023-04-09T00:16:08;95135.38;;;7.33;100.00
10706;BME280;5404;42.656;23.336;2023-04-09T00:18:34;95131.69;;;7.39;100.00
10706;BME280;5404;42.656;23.336;2023-04-09T00:20:59;95138.28;;;7.42;100.00
10706;BME280;5404;42.656;23.336;2023-04-09T00:23:24;95133.25;;;7.40;100.00
10706;BME280;5404;42.656;23.336;2023-04-09T00:25:50;95132.22;;;7.41;100.00
10706;BME280;5404;42.656;23.336;2023-04-09T00:28:15;95135.91;;;7.45;100.00
10706;BME280;5404;42.656;23.336;2023-04-09T00:30:41;95134.84;;;7.51;100.00
10706;BME280;5404;42.656;23.336;2023-04-09T00:33:06;95135.63;;;7.52;100.00
10706;BME280;5404;42.656;23.336;2023-04-09T00:35:31;95126.63;;;7.53;100.00
10706;BME280;5404;42.656;23.336;2023-04-09T00:37:56;95135.41;;;7.53;100.00
10706;BME280;5404;42.656;23.336;2023-04-09T00:40:22;95126.38;;;7.49;100.00
10706;BME280;5404;42.656;23.336;2023-04-09T00:42:47;95120.25;;;7.49;100.00
10706;BME280;5404;42.656;23.336;2023-04-09T00:45:12;95129.28;;;7.48;100.00
10706;BME280;5404;42.656;23.336;2023-04-09T00:47:38;95126.91;;;7.46;100.00
10706;BME280;5404;42.656;23.336;2023-04-09T00:50:03;95123.47;;;7.46;100.00
10706;BME280;5404;42.656;23.336;2023-04-09T00:52:28;95121.06;;;7.44;100.00
10706;BME280;5404;42.656;23.336;2023-04-09T00:54:58;95128.75;;;7.41;100.00
10706;BME280;5404;42.656;23.336;2023-04-09T00:57:24;95118.97;;;7.41;100.00
10706;BME280;5404;42.656;23.336;2023-04-09T00:59:50;95136.72;;;7.41;100.00
10706;BME280;5404;42.656;23.336;2023-04-09T01:02:15;95127.69;;;7.37;100.00
10706;BME280;5404;42.656;23.336;2023-04-09T01:04:40;95126.13;;;7.36;100.00
10706;BME280;5404;42.656;23.336;2023-04-09T01:14:29;95139.63;;;7.19;100.00
10706;BME280;5404;42.656;23.336;2023-04-09T01:16:59;95133.28;;;7.25;100.00
10706;BME280;5404;42.656;23.336;2023-04-09T01:22:02;95137.78;;;7.20;100.00
10706;BME280;5404;42.656;23.336;2023-04-09T01:24:40;95148.38;;;7.15;100.00
10706;BME280;5404;42.656;23.336;2023-04-09T01:27:10;95146.00;;;7.08;100.00
10706;BME280;5404;42.656;23.336;2023-04-09T01:29:40;95144.38;;;7.07;100.00
10706;BME280;5404;42.656;23.336;2023-04-09T01:32:08;95146.75;;;7.08;100.00
10706;BME280;5404;42.656;23.336;2023-04-09T01:34:34;95146.53;;;7.10;100.00
10706;BME280;5404;42.656;23.336;2023-04-09T01:37:01;95151.28;;;7.08;100.00
10706;BME280;5404;42.656;23.336;2023-04-09T01:39:27;95152.31;;;7.07;100.00
10706;BME280;5404;42.656;23.336;2023-04-09T01:41:53;95151.56;;;7.06;100.00
10706;BME280;5404;42.656;23.336;2023-04-09T01:44:20;95149.69;;;7.07;100.00
10706;BME280;5404;42.656;23.336;2023-04-09T01:46:47;95142.81;;;7.01;100.00
10706;BME280;5404;42.656;23.336;2023-04-09T01:49:14;95150.47;;;6.97;100.00
10706;BME280;5404;42.656;23.336;2023-04-09T01:51:40;95139.63;;;6.99;100.00
10706;BME280;5404;42.656;23.336;2023-04-09T01:54:06;95147.03;;;6.97;100.00
10706;BME280;5404;42.656;23.336;2023-04-09T01:56:41;95152.31;;;7.02;100.00
10706;BME280;5404;42.656;23.336;2023-04-09T01:59:06;95143.06;;;6.99;100.00
10706;BME280;5404;42.656;23.336;2023-04-09T02:01:37;95152.59;;;6.95;100.00
10706;BME280;5404;42.656;23.336;2023-04-09T02:04:04;95145.97;;;6.93;100.00
10706;BME280;5404;42.656;23.336;2023-04-09T02:09:01;95148.28;;;6.69;100.00
10706;BME280;5404;42.656;23.336;2023-04-09T02:11:27;95161.78;;;6.63;100.00
10706;BME280;5404;42.656;23.336;2023-04-09T02:13:53;95157.78;;;6.55;100.00
10706;BME280;5404;42.656;23.336;2023-04-09T02:16:19;95159.09;;;6.48;100.00
10706;BME280;5404;42.656;23.336;2023-04-09T02:18:45;95158.28;;;6.47;100.00
10706;BME280;5404;42.656;23.336;2023-04-09T02:21:11;95156.16;;;6.39;100.00
10706;BME280;5404;42.656;23.336;2023-04-09T02:23:37;95164.38;;;6.43;100.00
10706;BME280;5404;42.656;23.336;2023-04-09T02:26:03;95159.84;;;6.43;100.00
10706;BME280;5404;42.656;23.336;2023-04-09T02:28:28;95157.50;;;6.47;100.00
10706;BME280;5404;42.656;23.336;2023-04-09T02:30:53;95156.44;;;6.48;100.00
10706;BME280;5404;42.656;23.336;2023-04-09T02:33:19;95154.03;;;6.36;100.00
10706;BME280;5404;42.656;23.336;2023-04-09T02:35:44;95157.19;;;6.38;100.00
10706;BME280;5404;42.656;23.336;2023-04-09T02:38:09;95157.75;;;6.40;100.00
10706;BME280;5404;42.656;23.336;2023-04-09T02:40:39;95154.06;;;6.41;100.00
10706;BME280;5404;42.656;23.336;2023-04-09T02:43:05;95151.69;;;6.45;100.00
10706;BME280;5404;42.656;23.336;2023-04-09T02:45:30;95151.97;;;6.48;100.00
10706;BME280;5404;42.656;23.336;2023-04-09T02:47:55;95155.09;;;6.45;100.00
10706;BME280;5404;42.656;23.336;2023-04-09T02:50:21;95161.47;;;6.44;100.00
10706;BME280;5404;42.656;23.336;2023-04-09T02:52:46;95153.25;;;6.46;100.00
10706;BME280;5404;42.656;23.336;2023-04-09T02:55:12;95141.34;;;6.43;100.00
10706;BME280;5404;42.656;23.336;2023-04-09T02:57:37;95144.50;;;6.40;100.00
10706;BME280;5404;42.656;23.336;2023-04-09T03:00:02;95149.25;;;6.38;100.00
10706;BME280;5404;42.656;23.336;2023-04-09T03:02:28;95139.50;;;6.44;100.00
10706;BME280;5404;42.656;23.336;2023-04-09T03:04:53;95149.28;;;6.43;100.00
10706;BME280;5404;42.656;23.336;2023-04-09T03:07:18;95138.97;;;6.47;100.00
10706;BME280;5404;42.656;23.336;2023-04-09T03:09:43;95142.94;;;6.39;100.00
10706;BME280;5404;42.656;23.336;2023-04-09T03:12:09;95144.22;;;6.37;100.00
10706;BME280;5404;42.656;23.336;2023-04-09T03:14:34;95149.22;;;6.28;100.00
10706;BME280;5404;42.656;23.336;2023-04-09T03:16:59;95139.16;;;6.20;100.00
10706;BME280;5404;42.656;23.336;2023-04-09T03:19:25;95136.47;;;6.10;100.00
10706;BME280;5404;42.656;23.336;2023-04-09T03:21:51;95142.50;;;6.06;100.00
10706;BME280;5404;42.656;23.336;2023-04-09T03:24:16;95140.38;;;6.03;100.00
10706;BME280;5404;42.656;23.336;2023-04-09T03:26:41;95158.06;;;5.97;100.00
10706;BME280;5404;42.656;23.336;2023-04-09T03:29:07;95145.09;;;5.90;100.00
10706;BME280;5404;42.656;23.336;2023-04-09T03:31:32;95138.44;;;5.83;100.00
10706;BME280;5404;42.656;23.336;2023-04-09T03:33:57;95150.56;;;5.79;100.00
10706;BME280;5404;42.656;23.336;2023-04-09T03:36:23;95155.56;;;5.75;100.00
10706;BME280;5404;42.656;23.336;2023-04-09T03:38:48;95148.44;;;5.76;100.00
10706;BME280;5404;42.656;23.336;2023-04-09T03:41:14;95148.78;;;5.84;100.00
10706;BME280;5404;42.656;23.336;2023-04-09T03:43:40;95151.19;;;5.91;100.00
10706;BME280;5404;42.656;23.336;2023-04-09T03:46:11;95145.66;;;5.98;100.00
10706;BME280;5404;42.656;23.336;2023-04-09T03:48:37;95144.09;;;6.02;100.00
10706;BME280;5404;42.656;23.336;2023-04-09T03:51:02;95150.19;;;6.07;100.00
10706;BME280;5404;42.656;23.336;2023-04-09T03:53:27;95152.06;;;6.12;100.00
10706;BME280;5404;42.656;23.336;2023-04-09T03:55:52;95153.16;;;6.16;100.00
10706;BME280;5404;42.656;23.336;2023-04-09T03:58:18;95156.59;;;6.21;100.00
10706;BME280;5404;42.656;23.336;2023-04-09T04:00:43;95158.50;;;6.26;100.00
10706;BME280;5404;42.656;23.336;2023-04-09T04:03:10;95153.75;;;6.33;100.00
10706;BME280;5404;42.656;23.336;2023-04-09T04:05:35;95156.97;;;6.40;100.00
10706;BME280;5404;42.656;23.336;2023-04-09T04:08:00;95165.19;;;6.48;100.00
10706;BME280;5404;42.656;23.336;2023-04-09T04:10:25;95157.78;;;6.55;100.00
10706;BME280;5404;42.656;23.336;2023-04-09T04:12:51;95162.06;;;6.61;100.00
10706;BME280;5404;42.656;23.336;2023-04-09T04:15:16;95140.88;;;6.66;100.00
10706;BME280;5404;42.656;23.336;2023-04-09T04:17:43;95147.78;;;6.72;100.00
10706;BME280;5404;42.656;23.336;2023-04-09T04:20:09;95148.56;;;6.73;100.00
10706;BME280;5404;42.656;23.336;2023-04-09T04:22:34;95148.56;;;6.78;100.00
10706;BME280;5404;42.656;23.336;2023-04-09T04:24:59;95151.50;;;6.81;100.00
10706;BME280;5404;42.656;23.336;2023-04-09T04:27:25;95147.53;;;6.84;100.00
10706;BME280;5404;42.656;23.336;2023-04-09T04:29:50;95149.41;;;6.88;100.00
10706;BME280;5404;42.656;23.336;2023-04-09T04:32:15;95156.81;;;6.91;100.00
10706;BME280;5404;42.656;23.336;2023-04-09T04:34:41;95147.28;;;6.95;100.00
10706;BME280;5404;42.656;23.336;2023-04-09T04:37:06;95151.78;;;7.00;100.00
10706;BME280;5404;42.656;23.336;2023-04-09T04:39:31;95142.53;;;7.02;100.00
10706;BME280;5404;42.656;23.336;2023-04-09T04:41:56;95143.59;;;7.06;100.00
10706;BME280;5404;42.656;23.336;2023-04-09T04:44:22;95138.56;;;7.10;100.00
10706;BME280;5404;42.656;23.336;2023-04-09T04:46:47;95143.34;;;7.13;100.00
10706;BME280;5404;42.656;23.336;2023-04-09T04:49:12;95144.91;;;7.19;100.00
10706;BME280;5404;42.656;23.336;2023-04-09T04:51:37;95144.91;;;7.24;100.00
10706;BME280;5404;42.656;23.336;2023-04-09T04:54:03;95146.78;;;7.34;100.00
10706;BME280;5404;42.656;23.336;2023-04-09T04:56:28;95143.59;;;7.42;100.00
10706;BME280;5404;42.656;23.336;2023-04-09T04:58:53;95140.44;;;7.50;100.00
10706;BME280;5404;42.656;23.336;2023-04-09T05:01:19;95146.50;;;7.55;100.00
10706;BME280;5404;42.656;23.336;2023-04-09T05:03:44;95138.81;;;7.64;100.00
10706;BME280;5404;42.656;23.336;2023-04-09T05:06:09;95140.94;;;7.72;100.00
10706;BME280;5404;42.656;23.336;2023-04-09T05:08:34;95145.41;;;7.81;100.00
10706;BME280;5404;42.656;23.336;2023-04-09T05:11:00;95138.75;;;7.94;100.00
10706;BME280;5404;42.656;23.336;2023-04-09T05:13:25;95143.50;;;8.02;100.00
10706;BME280;5404;42.656;23.336;2023-04-09T05:15:51;95136.06;;;8.09;100.00
10706;BME280;5404;42.656;23.336;2023-04-09T05:18:16;95139.50;;;8.14;100.00
10706;BME280;5404;42.656;23.336;2023-04-09T05:20:41;95138.13;;;8.17;100.00
10706;BME280;5404;42.656;23.336;2023-04-09T05:23:07;95132.03;;;8.21;100.00
10706;BME280;5404;42.656;23.336;2023-04-09T05:25:34;95143.72;;;8.31;100.00
10706;BME280;5404;42.656;23.336;2023-04-09T05:27:59;95145.25;;;8.42;100.00
10706;BME280;5404;42.656;23.336;2023-04-09T05:30:24;95135.38;;;8.52;100.00
10706;BME280;5404;42.656;23.336;2023-04-09T05:32:50;95139.38;;;8.55;100.00
10706;BME280;5404;42.656;23.336;2023-04-09T05:35:15;95128.47;;;8.56;100.00
10706;BME280;5404;42.656;23.336;2023-04-09T05:37:41;95120.25;;;8.53;100.00
10706;BME280;5404;42.656;23.336;2023-04-09T05:40:06;95128.78;;;8.45;100.00
10706;BME280;5404;42.656;23.336;2023-04-09T05:42:32;95133.06;;;8.41;100.00
10706;BME280;5404;42.656;23.336;2023-04-09T05:44:57;95127.22;;;8.39;100.00
10706;BME280;5404;42.656;23.336;2023-04-09T05:47:22;95140.50;;;8.39;100.00
10706;BME280;5404;42.656;23.336;2023-04-09T05:49:47;95134.91;;;8.40;100.00
10706;BME280;5404;42.656;23.336;2023-04-09T05:52:14;95136.72;;;8.50;100.00
10706;BME280;5404;42.656;23.336;2023-04-09T05:54:40;95131.38;;;8.60;100.00
10706;BME280;5404;42.656;23.336;2023-04-09T05:57:05;95134.53;;;8.67;100.00
10706;BME280;5404;42.656;23.336;2023-04-09T05:59:30;95131.03;;;8.71;100.00
10706;BME280;5404;42.656;23.336;2023-04-09T06:01:55;95131.78;;;8.82;100.00
10706;BME280;5404;42.656;23.336;2023-04-09T06:04:21;95122.66;;;8.93;100.00
10706;BME280;5404;42.656;23.336;2023-04-09T06:06:46;95123.63;;;9.07;100.00
10706;BME280;5404;42.656;23.336;2023-04-09T06:09:12;95113.44;;;9.19;100.00
10706;BME280;5404;42.656;23.336;2023-04-09T06:11:37;95107.50;;;9.32;100.00
10706;BME280;5404;42.656;23.336;2023-04-09T06:14:02;95106.47;;;9.28;100.00
10706;BME280;5404;42.656;23.336;2023-04-09T06:16:28;95111.06;;;9.17;100.00
10706;BME280;5404;42.656;23.336;2023-04-09T06:18:53;95105.28;;;9.39;100.00
10706;BME280;5404;42.656;23.336;2023-04-09T06:21:21;95105.34;;;9.34;100.00
10706;BME280;5404;42.656;23.336;2023-04-09T06:23:46;95107.97;;;9.05;100.00
10706;BME280;5404;42.656;23.336;2023-04-09T06:26:11;95100.53;;;9.36;100.00
10706;BME280;5404;42.656;23.336;2023-04-09T06:28:37;95103.28;;;9.60;100.00
10706;BME280;5404;42.656;23.336;2023-04-09T06:31:02;95091.53;;;9.61;100.00
10706;BME280;5404;42.656;23.336;2023-04-09T06:33:27;95090.69;;;9.36;100.00
10706;BME280;5404;42.656;23.336;2023-04-09T06:35:53;95088.41;;;9.54;100.00
10706;BME280;5404;42.656;23.336;2023-04-09T06:38:18;95087.31;;;9.60;100.00
10706;BME280;5404;42.656;23.336;2023-04-09T06:40:43;95090.47;;;9.62;100.00
10706;BME280;5404;42.656;23.336;2023-04-09T06:43:09;95102.13;;;9.66;100.00
10706;BME280;5404;42.656;23.336;2023-04-09T06:45:35;95097.34;;;9.68;100.00
10706;BME280;5404;42.656;23.336;2023-04-09T06:48:01;95098.44;;;9.62;100.00
10706;BME280;5404;42.656;23.336;2023-04-09T06:50:27;95096.75;;;9.71;100.00
10706;BME280;5404;42.656;23.336;2023-04-09T06:52:52;95097.84;;;9.70;100.00
10706;BME280;5404;42.656;23.336;2023-04-09T06:55:18;95090.56;;;10.04;100.00
10706;BME280;5404;42.656;23.336;2023-04-09T06:57:43;95089.59;;;10.18;100.00
10706;BME280;5404;42.656;23.336;2023-04-09T07:00:09;95089.56;;;10.23;100.00
10706;BME280;5404;42.656;23.336;2023-04-09T07:02:35;95076.06;;;10.15;100.00
10706;BME280;5404;42.656;23.336;2023-04-09T07:05:00;95085.44;;;10.12;100.00
10706;BME280;5404;42.656;23.336;2023-04-09T07:07:25;95079.53;;;10.15;100.00
10706;BME280;5404;42.656;23.336;2023-04-09T07:09:51;95089.13;;;10.16;100.00
10706;BME280;5404;42.656;23.336;2023-04-09T07:12:26;95082.97;;;10.39;100.00
10706;BME280;5404;42.656;23.336;2023-04-09T07:14:52;95083.78;;;10.40;100.00
10706;BME280;5404;42.656;23.336;2023-04-09T07:17:17;95085.13;;;10.37;100.00
10706;BME280;5404;42.656;23.336;2023-04-09T07:19:42;95090.06;;;10.49;100.00
10706;BME280;5404;42.656;23.336;2023-04-09T07:22:08;95081.41;;;10.57;100.00
10706;BME280;5404;42.656;23.336;2023-04-09T07:24:33;95073.13;;;10.58;100.00
10706;BME280;5404;42.656;23.336;2023-04-09T07:27:02;95076.31;;;10.61;100.00
10706;BME280;5404;42.656;23.336;2023-04-09T07:29:27;95072.97;;;10.50;100.00
10706;BME280;5404;42.656;23.336;2023-04-09T07:31:52;95079.59;;;10.52;100.00
10706;BME280;5404;42.656;23.336;2023-04-09T07:34:18;95081.56;;;10.66;100.00
10706;BME280;5404;42.656;23.336;2023-04-09T07:36:43;95080.53;;;10.80;100.00
10706;BME280;5404;42.656;23.336;2023-04-09T07:39:08;95080.97;;;10.87;100.00
10706;BME280;5404;42.656;23.336;2023-04-09T07:41:33;95088.63;;;10.94;100.00
10706;BME280;5404;42.656;23.336;2023-04-09T07:43:59;95077.19;;;11.25;100.00
10706;BME280;5404;42.656;23.336;2023-04-09T07:46:27;95074.16;;;11.45;100.00
10706;BME280;5404;42.656;23.336;2023-04-09T07:48:52;95088.28;;;11.32;100.00
10706;BME280;5404;42.656;23.336;2023-04-09T07:51:17;95092.91;;;11.08;100.00
10706;BME280;5404;42.656;23.336;2023-04-09T07:53:43;95085.38;;;10.97;100.00
10706;BME280;5404;42.656;23.336;2023-04-09T07:56:08;95100.28;;;10.79;100.00
10706;BME280;5404;42.656;23.336;2023-04-09T07:58:35;95100.72;;;10.86;100.00
10706;BME280;5404;42.656;23.336;2023-04-09T08:01:00;95095.53;;;10.95;100.00
10706;BME280;5404;42.656;23.336;2023-04-09T08:03:25;95088.34;;;10.95;100.00
10706;BME280;5404;42.656;23.336;2023-04-09T08:05:51;95097.53;;;11.03;100.00
10706;BME280;5404;42.656;23.336;2023-04-09T08:08:16;95099.84;;;10.72;100.00
10706;BME280;5404;42.656;23.336;2023-04-09T08:10:41;95094.38;;;10.64;100.00
10706;BME280;5404;42.656;23.336;2023-04-09T08:13:07;95105.47;;;10.89;100.00
10706;BME280;5404;42.656;23.336;2023-04-09T08:15:32;95100.13;;;11.08;100.00
10706;BME280;5404;42.656;23.336;2023-04-09T08:17:57;95104.19;;;10.87;100.00
10706;BME280;5404;42.656;23.336;2023-04-09T08:20:22;95107.16;;;11.36;100.00
10706;BME280;5404;42.656;23.336;2023-04-09T08:22:48;95094.63;;;11.68;100.00
10706;BME280;5404;42.656;23.336;2023-04-09T08:25:13;95087.44;;;11.83;100.00
10706;BME280;5404;42.656;23.336;2023-04-09T08:27:38;95038.09;;;11.34;100.00
10706;BME280;5404;42.656;23.336;2023-04-09T08:30:04;95095.91;;;11.39;100.00
10706;BME280;5404;42.656;23.336;2023-04-09T08:32:29;95101.84;;;11.17;100.00
10706;BME280;5404;42.656;23.336;2023-04-09T08:34:54;95102.06;;;11.21;100.00
10706;BME280;5404;42.656;23.336;2023-04-09T08:37:20;95107.91;;;11.23;100.00
10706;BME280;5404;42.656;23.336;2023-04-09T08:39:45;95105.03;;;11.19;100.00
10706;BME280;5404;42.656;23.336;2023-04-09T08:42:10;95096.75;;;11.21;100.00
10706;BME280;5404;42.656;23.336;2023-04-09T08:44:37;95105.94;;;11.28;100.00
10706;BME280;5404;42.656;23.336;2023-04-09T08:47:06;95107.00;;;11.46;100.00
10706;BME280;5404;42.656;23.336;2023-04-09T08:49:34;95104.06;;;11.80;100.00
10706;BME280;5404;42.656;23.336;2023-04-09T08:51:59;95102.19;;;11.94;100.00
10706;BME280;5404;42.656;23.336;2023-04-09T08:54:24;95097.63;;;11.81;100.00
10706;BME280;5404;42.656;23.336;2023-04-09T08:56:50;95097.13;;;11.79;100.00
10706;BME280;5404;42.656;23.336;2023-04-09T08:59:16;95099.31;;;11.90;100.00
10706;BME280;5404;42.656;23.336;2023-04-09T09:01:44;95101.19;;;11.90;100.00
10706;BME280;5404;42.656;23.336;2023-04-09T09:04:11;95101.91;;;11.95;100.00
10706;BME280;5404;42.656;23.336;2023-04-09T09:06:37;95086.97;;;12.08;100.00
10706;BME280;5404;42.656;23.336;2023-04-09T09:09:10;95083.03;;;12.05;100.00
10706;BME280;5404;42.656;23.336;2023-04-09T09:11:36;95095.38;;;12.15;100.00
10706;BME280;5404;42.656;23.336;2023-04-09T09:14:03;95083.28;;;12.44;100.00
10706;BME280;5404;42.656;23.336;2023-04-09T09:16:28;95083.59;;;12.43;100.00
10706;BME280;5404;42.656;23.336;2023-04-09T09:18:55;95083.72;;;12.87;100.00
10706;BME280;5404;42.656;23.336;2023-04-09T09:21:21;95069.63;;;12.46;100.00
10706;BME280;5404;42.656;23.336;2023-04-09T09:23:46;95064.19;;;12.51;100.00
10706;BME280;5404;42.656;23.336;2023-04-09T09:26:19;95064.75;;;13.85;100.00
10706;BME280;5404;42.656;23.336;2023-04-09T09:28:45;95055.59;;;14.73;100.00
10706;BME280;5404;42.656;23.336;2023-04-09T09:31:12;95049.00;;;15.48;100.00
10706;BME280;5404;42.656;23.336;2023-04-09T09:33:37;95050.50;;;15.74;100.00
10706;BME280;5404;42.656;23.336;2023-04-09T09:36:03;95051.25;;;14.38;100.00
10706;BME280;5404;42.656;23.336;2023-04-09T09:38:29;95043.50;;;14.28;100.00
10706;BME280;5404;42.656;23.336;2023-04-09T09:40:54;95042.00;;;15.38;100.00
10706;BME280;5404;42.656;23.336;2023-04-09T09:43:20;95042.81;;;16.02;100.00
10706;BME280;5404;42.656;23.336;2023-04-09T09:45:46;95042.81;;;15.30;100.00
10706;BME280;5404;42.656;23.336;2023-04-09T09:48:11;95047.56;;;15.16;100.00
10706;BME280;5404;42.656;23.336;2023-04-09T09:50:37;95039.03;;;15.94;100.00
10706;BME280;5404;42.656;23.336;2023-04-09T09:53:03;95040.94;;;15.31;100.00
10706;BME280;5404;42.656;23.336;2023-04-09T09:55:30;95029.25;;;16.27;99.60
10706;BME280;5404;42.656;23.336;2023-04-09T09:57:56;95028.03;;;16.25;93.68
10706;BME280;5404;42.656;23.336;2023-04-09T10:00:22;95034.28;;;15.37;96.59
10706;BME280;5404;42.656;23.336;2023-04-09T10:02:56;95029.06;;;14.46;100.00
10706;BME280;5404;42.656;23.336;2023-04-09T10:05:23;95019.00;;;15.03;100.00
10706;BME280;5404;42.656;23.336;2023-04-09T10:07:52;94970.78;;;15.49;96.66
10706;BME280;5404;42.656;23.336;2023-04-09T10:10:18;95026.66;;;15.64;97.04
10706;BME280;5404;42.656;23.336;2023-04-09T10:12:44;95021.56;;;16.17;97.62
10706;BME280;5404;42.656;23.336;2023-04-09T10:15:09;95018.09;;;16.17;96.03
10706;BME280;5404;42.656;23.336;2023-04-09T10:17:34;95015.50;;;15.91;94.25
10706;BME280;5404;42.656;23.336;2023-04-09T10:20:06;95023.78;;;16.53;94.21
10706;BME280;5404;42.656;23.336;2023-04-09T10:22:34;95019.28;;;16.86;91.29
10706;BME280;5404;42.656;23.336;2023-04-09T10:25:01;95011.34;;;16.69;87.87
10706;BME280;5404;42.656;23.336;2023-04-09T10:27:26;95010.09;;;16.00;88.89
10706;BME280;5404;42.656;23.336;2023-04-09T10:29:52;95003.66;;;14.69;97.13
10706;BME280;5404;42.656;23.336;2023-04-09T10:32:18;95007.31;;;14.73;100.00
10706;BME280;5404;42.656;23.336;2023-04-09T10:34:50;95003.66;;;15.03;99.77
10706;BME280;5404;42.656;23.336;2023-04-09T10:37:23;95003.47;;;14.32;99.50
10706;BME280;5404;42.656;23.336;2023-04-09T10:39:49;94996.41;;;14.70;100.00
10706;BME280;5404;42.656;23.336;2023-04-09T10:42:34;94996.91;;;14.55;100.00
10706;BME280;5404;42.656;23.336;2023-04-09T10:47:32;94987.72;;;15.07;99.67
10706;BME280;5404;42.656;23.336;2023-04-09T10:49:58;94992.78;;;14.83;100.00
10706;BME280;5404;42.656;23.336;2023-04-09T10:52:38;94988.00;;;15.48;97.86
10706;BME280;5404;42.656;23.336;2023-04-09T10:55:04;94986.91;;;15.49;94.93
10706;BME280;5404;42.656;23.336;2023-04-09T10:57:30;94975.47;;;15.61;96.83
10706;BME280;5404;42.656;23.336;2023-04-09T10:59:56;94985.38;;;14.88;95.15
10706;BME280;5404;42.656;23.336;2023-04-09T11:07:30;94969.47;;;15.64;99.95
10706;BME280;5404;42.656;23.336;2023-04-09T11:09:57;94960.69;;;15.20;95.61
10706;BME280;5404;42.656;23.336;2023-04-09T11:12:22;94957.88;;;15.08;99.94
10706;BME280;5404;42.656;23.336;2023-04-09T11:14:47;94965.63;;;14.93;100.00
10706;BME280;5404;42.656;23.336;2023-04-09T11:17:12;94970.09;;;14.63;100.00
10706;BME280;5404;42.656;23.336;2023-04-09T11:19:38;94965.09;;;14.14;100.00
10706;BME280;5404;42.656;23.336;2023-04-09T11:22:04;94965.84;;;13.97;100.00
10706;BME280;5404;42.656;23.336;2023-04-09T11:24:43;94967.59;;;13.63;100.00
10706;BME280;5404;42.656;23.336;2023-04-09T11:27:08;94967.44;;;13.29;100.00
10706;BME280;5404;42.656;23.336;2023-04-09T11:29:34;94969.97;;;13.03;100.00
10706;BME280;5404;42.656;23.336;2023-04-09T11:32:00;94974.38;;;12.85;100.00
10706;BME280;5404;42.656;23.336;2023-04-09T11:34:28;94964.41;;;12.77;100.00
10706;BME280;5404;42.656;23.336;2023-04-09T11:36:53;94966.34;;;12.85;100.00
10706;BME280;5404;42.656;23.336;2023-04-09T11:39:19;94956.31;;;12.91;100.00
10706;BME280;5404;42.656;23.336;2023-04-09T11:41:44;94959.84;;;13.22;100.00
10706;BME280;5404;42.656;23.336;2023-04-09T11:44:10;94953.28;;;13.28;100.00
10706;BME280;5404;42.656;23.336;2023-04-09T11:46:36;94949.47;;;13.21;100.00
10706;BME280;5404;42.656;23.336;2023-04-09T11:49:02;94959.75;;;13.05;100.00
10706;BME280;5404;42.656;23.336;2023-04-09T11:51:28;94957.78;;;12.97;100.00
10706;BME280;5404;42.656;23.336;2023-04-09T11:53:55;94954.31;;;12.97;100.00
10706;BME280;5404;42.656;23.336;2023-04-09T11:56:27;94947.28;;;12.78;100.00
10706;BME280;5404;42.656;23.336;2023-04-09T11:58:52;94949.25;;;12.95;100.00
10706;BME280;5404;42.656;23.336;2023-04-09T12:01:20;94950.50;;;13.11;100.00
10706;BME280;5404;42.656;23.336;2023-04-09T12:03:50;94941.00;;;13.27;100.00
10706;BME280;5404;42.656;23.336;2023-04-09T12:06:16;94936.50;;;13.14;100.00
10706;BME280;5404;42.656;23.336;2023-04-09T12:08:44;94943.31;;;13.20;100.00
10706;BME280;5404;42.656;23.336;2023-04-09T12:11:10;94943.44;;;12.93;100.00
10706;BME280;5404;42.656;23.336;2023-04-09T12:13:36;94955.69;;;12.28;100.00
10706;BME280;5404;42.656;23.336;2023-04-09T12:16:01;94949.88;;;11.85;100.00
10706;BME280;5404;42.656;23.336;2023-04-09T12:18:27;94944.66;;;11.66;100.00
10706;BME280;5404;42.656;23.336;2023-04-09T12:20:52;94951.59;;;11.67;100.00
10706;BME280;5404;42.656;23.336;2023-04-09T12:23:18;94943.47;;;11.86;100.00
10706;BME280;5404;42.656;23.336;2023-04-09T12:25:43;94946.50;;;12.07;100.00
10706;BME280;5404;42.656;23.336;2023-04-09T12:28:13;94932.94;;;12.17;100.00
10706;BME280;5404;42.656;23.336;2023-04-09T12:30:39;94928.66;;;12.29;100.00
10706;BME280;5404;42.656;23.336;2023-04-09T12:33:05;94934.31;;;12.28;100.00
10706;BME280;5404;42.656;23.336;2023-04-09T12:35:30;94938.69;;;12.46;100.00
10706;BME280;5404;42.656;23.336;2023-04-09T12:37:56;94926.56;;;12.84;100.00
10706;BME280;5404;42.656;23.336;2023-04-09T12:40:21;94914.69;;;13.21;100.00
10706;BME280;5404;42.656;23.336;2023-04-09T12:42:46;94927.38;;;13.46;100.00
10706;BME280;5404;42.656;23.336;2023-04-09T12:45:13;94916.66;;;13.46;100.00
10706;BME280;5404;42.656;23.336;2023-04-09T12:47:39;94907.59;;;13.64;100.00
10706;BME280;5404;42.656;23.336;2023-04-09T12:50:05;94905.38;;;13.57;100.00
10706;BME280;5404;42.656;23.336;2023-04-09T12:52:31;94902.56;;;13.71;100.00
10706;BME280;5404;42.656;23.336;2023-04-09T12:54:56;94911.56;;;13.75;100.00
10706;BME280;5404;42.656;23.336;2023-04-09T12:57:21;94910.63;;;13.79;100.00
10706;BME280;5404;42.656;23.336;2023-04-09T12:59:47;94907.84;;;13.93;100.00
10706;BME280;5404;42.656;23.336;2023-04-09T13:02:12;94915.03;;;13.67;100.00
10706;BME280;5404;42.656;23.336;2023-04-09T13:04:37;94904.38;;;13.36;100.00
10706;BME280;5404;42.656;23.336;2023-04-09T13:07:03;94902.47;;;13.37;100.00
10706;BME280;5404;42.656;23.336;2023-04-09T13:09:28;94900.16;;;13.52;100.00